Time;durP1;ratioP1;P1;durP2;ratioP2;P2;SDS_P1;SDS_P2;PMS_P1;PMS_P2;Temp;Humidity;BMP_temperature;BMP_pressure;BME280_temperature;BME280_humidity;BME280_pressure;Samples;Min_cycle;Max_cycle;Signal;HPM_P1;HPM_P2
2021/04/30 00:03:54;;;;;;;18.50;14.45;;;;;;;18.94;40.75;100025.53;30998881;28;20825;-56
2021/04/30 00:18:55;;;;;;;18.87;15.10;;;;;;;18.90;41.15;100033.88;30994140;28;20038;-52
2021/04/30 00:33:57;;;;;;;19.97;15.77;;;;;;;18.85;39.96;100036.94;30991701;28;20289;-55
2021/04/30 00:48:58;;;;;;;20.25;16.63;;;;;;;18.84;40.66;100035.31;30913278;28;20348;-56
2021/04/30 01:03:59;;;;;;;20.63;16.88;;;;;;;18.84;39.94;100049.28;30991066;28;20080;-52
2021/04/30 01:19:00;;;;;;;19.77;16.05;;;;;;;18.85;40.76;100060.66;30989054;28;20038;-58
2021/04/30 01:34:01;;;;;;;19.73;16.33;;;;;;;18.83;39.75;100075.78;30992503;28;20042;-54
2021/04/30 01:49:03;;;;;;;19.03;16.97;;;;;;;18.83;39.60;100081.06;30975527;28;20301;-52
2021/04/30 02:04:07;;;;;;;20.30;16.05;;;;;;;18.82;39.96;100103.06;31008082;28;20348;-56
2021/04/30 02:19:08;;;;;;;20.63;16.35;;;;;;;18.80;40.11;100105.03;31006443;28;20432;-55
2021/04/30 02:34:09;;;;;;;20.87;16.20;;;;;;;18.79;39.78;100122.63;31003844;28;20030;-56
2021/04/30 02:49:14;;;;;;;20.40;16.10;;;;;;;18.78;39.50;100126.25;30967010;28;20301;-57
2021/04/30 03:04:15;;;;;;;18.10;14.65;;;;;;;18.76;39.31;100148.38;31000354;28;20269;-55
2021/04/30 03:19:16;;;;;;;17.40;15.20;;;;;;;18.76;39.74;100172.06;30999120;28;20038;-52
2021/04/30 03:34:17;;;;;;;18.10;14.10;;;;;;;18.74;39.61;100192.47;30995102;28;20305;-55
2021/04/30 03:49:18;;;;;;;16.70;13.47;;;;;;;18.73;39.40;100202.13;30959681;28;20311;-53
2021/04/30 04:04:19;;;;;;;18.00;13.50;;;;;;;18.71;39.52;100200.63;30994216;28;20288;-55
2021/04/30 04:19:20;;;;;;;15.90;13.30;;;;;;;18.70;39.93;100223.50;30999599;28;20303;-58
2021/04/30 04:34:21;;;;;;;15.77;12.73;;;;;;;18.69;39.40;100247.31;31012748;28;20348;-57
2021/04/30 04:49:22;;;;;;;13.67;11.83;;;;;;;18.70;39.48;100273.50;30991166;28;20054;-58
2021/04/30 05:04:23;;;;;;;14.50;11.63;;;;;;;18.68;39.29;100291.25;30991537;28;20284;-57
2021/04/30 05:19:24;;;;;;;13.77;11.10;;;;;;;18.69;39.29;100297.34;31012979;28;20303;-57
2021/04/30 05:34:25;;;;;;;13.33;10.80;;;;;;;18.69;39.49;100318.41;31014908;28;20296;-58
2021/04/30 05:49:27;;;;;;;11.97;10.07;;;;;;;18.70;39.26;100338.50;30996878;28;20315;-55
2021/04/30 06:04:28;;;;;;;12.40;9.93;;;;;;;18.77;40.12;100352.81;30988420;28;20290;-57
2021/04/30 06:19:30;;;;;;;10.70;8.05;;;;;;;18.13;38.35;100369.84;30968729;28;20043;-59
2021/04/30 06:34:31;;;;;;;9.52;8.15;;;;;;;16.72;40.74;100401.72;30984629;28;20499;-58
2021/04/30 06:49:32;;;;;;;9.10;7.03;;;;;;;16.21;41.75;100425.06;30974767;28;20476;-59
2021/04/30 07:04:33;;;;;;;10.27;4.60;;;;;;;16.81;42.19;100449.19;30985398;28;20353;-58
2021/04/30 07:19:34;;;;;;;6.38;2.95;;;;;;;17.91;42.67;100468.16;30986620;28;20801;-58
2021/04/30 07:34:35;;;;;;;6.07;2.37;;;;;;;18.71;40.09;100469.16;30962383;28;20038;-61
2021/04/30 07:49:36;;;;;;;5.87;2.23;;;;;;;19.37;38.87;100500.16;30994847;28;20735;-58
2021/04/30 08:04:37;;;;;;;3.38;1.95;;;;;;;19.86;37.88;100512.34;30996944;28;20289;-57
2021/04/30 08:19:38;;;;;;;2.77;1.60;;;;;;;19.97;37.30;100521.06;30990635;28;20042;-57
2021/04/30 08:34:39;;;;;;;3.20;1.90;;;;;;;19.83;37.74;100565.38;30973390;28;20289;-57
2021/04/30 08:49:40;;;;;;;3.40;1.90;;;;;;;19.82;37.71;100570.81;30995012;28;20328;-58
2021/04/30 09:04:41;;;;;;;8.02;4.80;;;;;;;19.75;37.42;100590.81;30998313;28;20288;-54
2021/04/30 09:20:08;;;;;;;5.67;3.50;;;;;;;19.78;38.14;100601.06;30983631;28;20038;-58
2021/04/30 09:35:10;;;;;;;4.68;2.80;;;;;;;19.97;38.08;100608.13;31001043;28;20298;-59
2021/04/30 09:50:24;;;;;;;5.18;2.70;;;;;;;20.27;37.17;100623.78;30977811;28;20030;-57
2021/04/30 10:05:25;;;;;;;4.63;2.80;;;;;;;20.75;36.55;100632.53;30991496;28;20046;-58
2021/04/30 10:20:26;;;;;;;4.93;2.72;;;;;;;20.88;36.40;100633.06;30990050;28;20054;-58
2021/04/30 10:35:44;;;;;;;4.50;2.80;;;;;;;20.45;35.01;100636.22;30996367;28;20057;-57
2021/04/30 10:50:49;;;;;;;61.90;47.13;;;;;;;20.32;34.05;100620.72;30992465;28;20707;-58
2021/04/30 11:06:00;;;;;;;7.22;5.50;;;;;;;20.36;35.19;100614.16;30976137;28;20026;-56
2021/04/30 11:21:12;;;;;;;10.82;5.50;;;;;;;20.25;35.64;100622.28;30990065;28;20084;-57
2021/04/30 11:36:14;;;;;;;8.75;4.68;;;;;;;20.25;35.91;100649.47;30997230;28;20041;-57
2021/04/30 11:51:15;;;;;;;5.93;3.90;;;;;;;20.34;36.16;100668.06;30991738;28;20041;-58
2021/04/30 12:06:18;;;;;;;5.93;3.80;;;;;;;20.35;36.21;100685.59;30991865;28;20030;-60
2021/04/30 12:21:29;;;;;;;5.57;3.67;;;;;;;20.30;36.60;100701.84;30959030;28;20297;-56
2021/04/30 12:36:32;;;;;;;5.65;3.90;;;;;;;20.24;37.00;100700.59;30980802;28;20042;-56
2021/04/30 12:51:34;;;;;;;6.38;3.67;;;;;;;20.17;37.70;100696.84;30974113;28;20042;-58
2021/04/30 13:06:36;;;;;;;5.97;3.75;;;;;;;20.05;37.65;100688.25;30987363;28;20026;-57
2021/04/30 13:21:38;;;;;;;4.60;3.30;;;;;;;20.01;37.64;100681.56;30961199;28;20041;-55
2021/04/30 13:36:53;;;;;;;5.40;3.60;;;;;;;20.11;36.98;100680.72;30976033;28;20034;-57
2021/04/30 13:51:53;;;;;;;5.72;3.40;;;;;;;19.99;35.84;100690.59;30984239;28;20038;-57
2021/04/30 14:06:54;;;;;;;4.80;3.42;;;;;;;19.95;36.38;100678.66;30994074;28;20101;-59
2021/04/30 14:21:56;;;;;;;4.43;3.30;;;;;;;19.98;36.50;100681.03;30975269;28;20037;-58
2021/04/30 14:36:57;;;;;;;5.00;3.47;;;;;;;19.96;36.30;100693.53;30998451;28;20297;-58
2021/04/30 14:51:58;;;;;;;5.60;3.25;;;;;;;19.99;36.45;100698.50;30973366;28;20038;-57
2021/04/30 15:06:59;;;;;;;5.00;3.28;;;;;;;20.04;36.57;100712.13;30969458;28;20457;-58
2021/04/30 15:22:00;;;;;;;4.45;3.08;;;;;;;20.13;36.74;100728.94;30949131;28;21056;-61
2021/04/30 15:37:02;;;;;;;7.83;5.87;;;;;;;19.03;33.12;100717.41;30911700;28;20576;-60
2021/04/30 15:52:03;;;;;;;6.78;5.30;;;;;;;18.09;34.57;100705.94;30929115;28;20368;-58
2021/04/30 16:07:04;;;;;;;6.55;3.88;;;;;;;18.92;36.58;100729.81;30910331;28;20527;-56
2021/04/30 16:22:05;;;;;;;8.77;4.17;;;;;;;19.36;36.08;100717.25;30895975;28;20042;-56
2021/04/30 16:37:08;;;;;;;5.03;3.80;;;;;;;19.52;36.73;100724.66;30912867;28;20304;-53
2021/04/30 16:52:09;;;;;;;5.15;3.97;;;;;;;19.53;37.85;100706.03;30967546;28;20297;-53
2021/04/30 17:07:11;;;;;;;6.43;4.57;;;;;;;19.50;38.18;100708.97;31009829;28;20041;-54
2021/04/30 17:22:12;;;;;;;7.88;4.72;;;;;;;19.08;35.10;100705.63;31028945;28;20829;-57
2021/04/30 17:37:13;;;;;;;6.73;5.20;;;;;;;17.78;35.89;100726.81;31011877;28;20050;-55
2021/04/30 17:52:14;;;;;;;7.13;4.37;;;;;;;18.49;37.69;100743.94;30999213;28;20285;-57
2021/04/30 18:07:15;;;;;;;7.90;5.00;;;;;;;19.07;38.75;100746.13;30988076;28;20304;-56
2021/04/30 18:22:17;;;;;;;7.03;5.07;;;;;;;19.34;38.58;100753.44;30973118;28;20281;-59
2021/04/30 18:37:18;;;;;;;9.10;5.18;;;;;;;19.46;38.74;100770.81;30994246;28;20708;-57
2021/04/30 18:52:20;;;;;;;12.03;8.60;;;;;;;19.46;38.22;100786.63;30998077;28;20048;-58
2021/04/30 19:07:21;;;;;;;10.35;6.03;;;;;;;19.45;38.96;100793.72;30982412;28;20640;-57
2021/04/30 19:22:22;;;;;;;9.13;6.23;;;;;;;19.44;38.69;100797.31;30988442;28;20510;-59
2021/04/30 19:37:23;;;;;;;8.80;6.17;;;;;;;19.45;38.71;100827.16;30979199;28;20300;-58
2021/04/30 19:52:25;;;;;;;8.70;6.27;;;;;;;19.44;38.83;100814.94;30991981;28;20799;-58
2021/04/30 20:07:27;;;;;;;8.48;6.30;;;;;;;19.45;38.40;100828.00;30982262;28;20852;-61
2021/04/30 20:22:28;;;;;;;8.95;6.25;;;;;;;19.50;38.71;100817.03;30999458;28;20484;-55
2021/04/30 20:37:29;;;;;;;9.13;6.60;;;;;;;19.49;38.91;100820.63;30999901;28;20049;-58
2021/04/30 20:52:30;;;;;;;8.13;6.27;;;;;;;19.46;39.10;100823.53;31007561;28;20297;-56
2021/04/30 21:07:31;;;;;;;9.20;7.03;;;;;;;19.44;39.62;100841.28;31021343;28;20317;-58
2021/04/30 21:22:33;;;;;;;13.00;7.28;;;;;;;19.45;39.33;100849.06;31005360;28;20302;-58
2021/04/30 21:37:34;;;;;;;10.00;6.73;;;;;;;19.48;39.25;100858.53;31013783;28;20038;-56
2021/04/30 21:52:35;;;;;;;10.07;6.90;;;;;;;19.45;39.27;100859.63;31006735;28;20669;-56
2021/04/30 22:07:36;;;;;;;9.37;7.03;;;;;;;19.42;39.28;100859.91;31010194;28;20317;-57
2021/04/30 22:22:37;;;;;;;13.73;8.10;;;;;;;19.44;39.28;100894.00;30975917;28;20640;-54
2021/04/30 22:37:38;;;;;;;9.70;7.13;;;;;;;19.42;39.54;100893.31;30985674;28;20308;-55
2021/04/30 22:52:38;;;;;;;9.57;6.87;;;;;;;19.41;39.38;100883.75;30987906;28;20684;-56
2021/04/30 23:07:40;;;;;;;9.33;6.80;;;;;;;19.45;39.63;100877.25;30988800;28;20297;-55
2021/04/30 23:22:41;;;;;;;10.05;6.57;;;;;;;19.44;39.10;100852.66;30963174;28;20698;-53
2021/04/30 23:37:42;;;;;;;9.53;7.03;;;;;;;19.45;39.10;100856.97;30971301;28;20504;-55
2021/04/30 23:52:43;;;;;;;8.47;6.13;;;;;;;19.45;39.20;100872.81;30986876;28;20301;-56
